Latest Weather Observations for Parawa West

IDS60901

Issued at 9:21 am CDT Wednesday 21 February 2024 (issued every 10 minutes, with the page automatically refreshed every 10 minutes)

About weather observations | Map of Adelaide area stations | Latest observations for Adelaide area | Other Formats
Station Details ID: 023875 Name: SECOND VALLEY FOREST AWS Lat: -35.57 Lon: 138.29 Height: 341.0 m
Data from the previous 72 hours. | See also: Recent months at Parawa West
Date/Time
CDT
Temp
°C
App
Temp
°C
Dew
Point
°C
Rel
Hum
%
Delta-T
°C
Wind Press
QNH
hPa
Press
MSL
hPa
Rain since
9am
mm
Dir  Spd
km/h
Gust
km/h
Spd
kts
Gust
kts
21/09:00am 26.1 23.9 7.7 31 10.0 NE 9 15 5 8 1011.5 1010.4 0.0
21/08:30am 24.9 21.9 7.5 33 9.3 NE 13 19 7 10 1011.4 1010.3 0.0
21/08:00am 24.0 21.7 7.6 35 8.8 NE 9 17 5 9 1011.3 1010.2 0.0
21/07:30am 22.7 20.0 7.3 37 8.1 NE 11 17 6 9 1011.4 1010.3 0.0
21/07:00am 22.0 18.8 7.0 38 7.8 NE 13 19 7 10 1011.1 1010.0 0.0
21/06:30am 22.4 18.9 7.0 37 8.1 NE 15 19 8 10 1010.8 1009.8 0.0
21/06:00am 22.8 18.8 6.6 35 8.5 NE 17 20 9 11 1010.4 1009.4 0.0
21/05:30am 22.8 19.5 6.6 35 8.5 NE 13 19 7 10 1010.5 1009.5 0.0
21/05:00am 22.6 19.4 6.8 36 8.3 NE 13 17 7 9 1010.6 1009.6 0.0
21/04:30am 22.4 19.4 6.2 35 8.4 NE 11 17 6 9 1010.9 1009.9 0.0
21/04:00am 21.6 19.1 6.7 38 7.7 ENE 9 11 5 6 1011.2 1010.1 0.0
21/03:30am 22.8 19.5 6.6 35 8.4 NE 13 19 7 10 1010.8 1009.8 0.0
21/03:00am 22.1 19.6 6.7 37 8.0 NNE 9 15 5 8 1011.1 1010.0 0.0
21/02:30am 23.5 19.8 6.3 33 9.0 NE 15 20 8 11 1010.9 1009.9 0.0
21/02:00am 24.1 20.0 6.4 32 9.3 NE 17 28 9 15 1011.4 1010.3 0.0
21/01:30am 24.6 19.2 6.4 31 9.6 NE 24 32 13 17 1011.3 1010.2 0.0
21/01:00am 24.8 19.4 6.5 31 9.6 NE 24 33 13 18 1011.3 1010.2 0.0
21/12:30am 24.6 18.9 6.8 32 9.4 ENE 26 32 14 17 1011.3 1010.2 0.0
21/12:00am 24.8 19.5 7.0 32 9.5 ENE 24 32 13 17 1011.5 1010.4 0.0
 
Date/Time
CDT
Temp
°C
App
Temp
°C
Dew
Point
°C
Rel
Hum
%
Delta-T
°C
Wind Press
QNH
hPa
Press
MSL
hPa
Rain since
9am
mm
Dir  Spd
km/h
Gust
km/h
Spd
kts
Gust
kts
20/11:30pm 24.7 19.5 7.4 33 9.3 ENE 24 30 13 16 1011.5 1010.4 0.0
20/11:00pm 24.9 19.3 7.1 32 9.5 ENE 26 39 14 21 1011.7 1010.6 0.0
20/10:30pm 25.1 19.2 7.3 32 9.5 ENE 28 39 15 21 1011.7 1010.6 0.0
20/10:00pm 25.4 18.1 7.1 31 9.8 NE 35 46 19 25 1011.6 1010.5 0.0
20/09:30pm 25.6 18.8 6.8 30 10.0 NE 32 46 17 25 1011.4 1010.3 0.0
20/09:00pm 25.3 18.6 7.4 32 9.6 ENE 32 48 17 26 1010.9 1009.9 0.0
20/08:30pm 25.2 18.6 7.8 33 9.4 ENE 32 41 17 22 1010.8 1009.8 0.0
20/08:00pm 25.2 19.1 8.2 34 9.2 ENE 30 43 16 23 1010.7 1009.7 0.0
20/07:30pm 25.5 20.2 8.5 34 9.3 ENE 26 37 14 20 1010.7 1009.7 0.0
20/07:00pm 25.9 20.0 7.5 31 9.9 ENE 28 43 15 23 1010.7 1009.7 0.0
20/06:30pm 25.8 19.6 9.2 35 9.2 ENE 32 50 17 27 1010.8 1009.8 0.0
20/06:22pm 25.7 19.9 9.5 36 9.0 ENE 30 50 16 27 1010.7 1009.7 0.0
20/06:00pm 25.9 19.6 9.7 36 9.1 ENE 33 46 18 25 1010.9 1009.9 0.0
20/05:30pm 26.2 20.2 10.0 36 9.1 ENE 32 43 17 23 1010.8 1009.8 0.0
20/05:00pm 26.3 20.2 9.6 35 9.4 ENE 32 46 17 25 1011.2 1010.1 0.0
20/04:35pm 26.9 20.1 9.3 33 9.8 ENE 35 54 19 29 1011.1 1010.0 0.0
20/04:30pm 27.0 19.4 8.9 32 10.1 E 39 54 21 29 1010.9 1009.9 0.0
20/04:00pm 27.8 20.3 8.1 29 10.8 ENE 37 52 20 28 1011.4 1010.3 0.0
20/03:47pm 28.6 21.4 9.3 30 10.9 ENE 37 57 20 31 1011.6 1010.5 0.0
20/03:30pm 27.4 20.0 8.3 30 10.5 E 37 52 20 28 1011.6 1010.5 0.0
20/03:00pm 26.9 20.4 8.8 32 10.0 E 33 52 18 28 1012.1 1011.0 0.0
20/02:30pm 26.9 20.5 8.4 31 10.2 E 32 46 17 25 1012.4 1011.3 0.0
20/02:00pm 26.4 20.3 8.4 32 9.9 E 30 43 16 23 1012.8 1011.7 0.0
20/01:30pm 25.9 20.6 9.7 36 9.1 E 28 39 15 21 1012.8 1011.7 0.0
20/01:00pm 26.6 22.0 9.5 34 9.6 E 24 33 13 18 1012.9 1011.9 0.0
20/12:30pm 26.3 20.2 6.4 28 10.5 E 28 39 15 21 1013.2 1012.2 0.0
20/12:00pm 27.5 23.0 8.4 30 10.5 ESE 22 28 12 15 1014.4 1013.3 0.0
20/11:30am 25.1 24.4 11.3 42 7.9 SE 6 11 3 6 1015.5 1014.5 0.0
20/11:00am 20.9 20.8 13.8 64 4.2 SSE 7 9 4 5 1015.9 1014.9 0.0
20/10:30am 22.6 21.8 11.7 50 6.2 NE 7 13 4 7 1015.9 1014.9 0.0
20/10:00am 20.3 19.8 12.0 59 4.7 ESE 6 15 3 8 1015.7 1014.7 0.0
20/09:30am 18.2 18.3 15.6 85 1.6 E 9 15 5 8 1015.6 1014.6 0.0
20/09:00am 17.3 16.7 15.6 90 1.0 SSE 13 15 7 8 1015.9 1014.9 0.0
20/08:30am 22.3 20.7 8.8 42 7.3 SE 7 15 4 8 1015.5 1014.5 0.0
20/08:00am 22.7 21.1 8.0 39 7.9 NNW 6 11 3 6 1014.6 1013.5 0.0
20/07:30am 23.2 20.5 7.3 36 8.4 NE 11 15 6 8 1014.0 1013.0 0.0
20/07:00am 23.6 19.3 7.7 36 8.5 NE 20 30 11 16 1013.6 1012.6 0.0
20/06:30am 22.7 18.7 8.4 40 7.7 NE 19 30 10 16 1013.2 1012.2 0.0
20/06:00am 22.6 18.5 8.7 41 7.5 NE 20 30 11 16 1013.4 1012.4 0.0
20/05:30am 22.3 18.5 9.1 43 7.2 NE 19 26 10 14 1013.6 1012.6 0.0
20/05:00am 21.5 17.8 10.0 48 6.3 ENE 20 24 11 13 1013.7 1012.7 0.0
20/04:30am 21.5 18.1 10.6 50 6.1 ENE 19 24 10 13 1014.0 1013.0 0.0
20/04:00am 19.4 16.6 11.4 60 4.5 E 17 20 9 11 1014.3 1013.2 0.0
20/03:30am 18.9 15.6 9.4 54 5.1 E 17 19 9 10 1014.5 1013.4 0.0
20/03:00am 18.6 14.4 8.3 51 5.4 E 20 28 11 15 1014.7 1013.6 0.0
20/02:30am 17.8 13.2 6.7 48 5.6 ESE 20 24 11 13 1015.2 1014.1 0.0
20/02:00am 18.3 14.0 8.0 51 5.4 E 20 26 11 14 1015.4 1014.3 0.0
20/01:30am 17.2 12.9 9.4 60 4.1 E 22 28 12 15 1015.9 1014.9 0.0
20/01:00am 16.2 13.0 11.4 73 2.6 ESE 19 24 10 13 1016.5 1015.5 0.0
20/12:30am 15.9 12.7 11.9 77 2.2 ESE 20 24 11 13 1017.0 1016.0 0.0
20/12:00am 16.0 12.4 11.8 76 2.3 ESE 22 26 12 14 1017.3 1016.2 0.0
 
Date/Time
CDT
Temp
°C
App
Temp
°C
Dew
Point
°C
Rel
Hum
%
Delta-T
°C
Wind Press
QNH
hPa
Press
MSL
hPa
Rain since
9am
mm
Dir  Spd
km/h
Gust
km/h
Spd
kts
Gust
kts
19/11:30pm 15.7 12.7 11.9 78 2.1 ESE 19 24 10 13 1017.6 1016.5 0.0
19/11:00pm 15.6 12.8 12.5 82 1.7 ESE 19 22 10 12 1017.7 1016.6 0.0
19/10:30pm 15.3 12.5 13.2 87 1.2 ESE 20 24 11 13 1018.1 1017.1 0.0
19/10:00pm 15.1 13.0 13.5 90 0.9 SE 17 20 9 11 1018.2 1017.2 0.0
19/09:30pm 15.0 12.8 13.4 90 0.9 SE 17 19 9 10 1018.2 1017.2 0.0
19/09:00pm 15.3 13.2 12.4 83 1.6 SE 15 19 8 10 1017.9 1016.8 0.0
19/08:30pm 15.7 13.7 12.6 82 1.7 SE 15 20 8 11 1017.7 1016.6 0.0
19/08:00pm 16.3 14.2 12.3 77 2.2 SE 15 19 8 10 1017.6 1016.5 0.0
19/07:30pm 18.1 15.5 10.7 62 4.0 SE 15 19 8 10 1017.5 1016.4 0.0
19/07:00pm 19.0 16.4 10.6 58 4.6 SE 15 20 8 11 1017.3 1016.2 0.0
19/06:30pm 20.5 17.9 12.0 58 4.8 SE 17 22 9 12 1017.4 1016.3 0.0
19/06:00pm 20.4 18.2 13.4 64 4.1 SE 17 20 9 11 1017.3 1016.2 0.0
19/05:30pm 22.3 21.2 14.4 61 4.7 SSE 13 20 7 11 1017.4 1016.3 0.0
19/05:00pm 23.7 21.5 13.3 52 6.1 SE 17 24 9 13 1017.3 1016.2 0.0
19/04:30pm 24.1 21.9 12.1 47 6.9 SE 15 19 8 10 1017.8 1016.7 0.0
19/04:00pm 24.5 22.4 13.7 51 6.4 SE 17 22 9 12 1018.2 1017.2 0.0
19/03:30pm 23.5 22.3 15.0 59 5.1 SSE 15 20 8 11 1018.7 1017.7 0.0
19/03:00pm 25.4 24.4 14.5 51 6.6 SSE 13 19 7 10 1019.1 1018.1 0.0
19/02:30pm 26.4 25.2 13.9 46 7.5 SE 13 20 7 11 1019.3 1018.3 0.0
19/02:00pm 25.6 24.5 15.3 53 6.3 SSE 15 20 8 11 1019.5 1018.5 0.0
19/01:30pm 24.8 23.7 15.4 56 5.7 SSE 15 20 8 11 1019.7 1018.7 0.0
19/01:00pm 23.9 22.3 15.1 58 5.3 SSE 17 22 9 12 1020.1 1019.1 0.0
19/12:30pm 25.4 24.1 13.6 48 7.0 SE 13 20 7 11 1020.4 1019.3 0.0
19/12:00pm 23.3 22.7 15.6 62 4.7 SSE 13 17 7 9 1020.5 1019.4 0.0
19/11:30am 23.1 22.3 15.2 61 4.8 SSE 13 17 7 9 1020.6 1019.6 0.0
19/11:00am 23.1 22.1 13.3 54 5.8 ESE 11 15 6 8 1020.5 1019.4 0.0
19/10:30am 21.8 20.0 13.4 59 4.9 E 15 20 8 11 1020.4 1019.3 0.0
19/10:00am 19.7 17.0 13.6 68 3.5 ESE 20 26 11 14 1020.1 1019.1 0.0
19/09:30am 18.5 15.9 13.8 74 2.7 SE 20 28 11 15 1020.1 1019.1 0.0
19/09:00am 17.2 14.9 14.1 82 1.8 ESE 19 26 10 14 1020.0 1019.0 0.0
19/08:30am 15.9 14.5 14.4 91 0.9 SE 15 20 8 11 1020.0 1019.0 0.0
19/08:00am 14.4 12.4 13.9 97 0.3 SE 17 22 9 12 1019.8 1018.8 0.0
19/07:30am 13.9 11.4 13.4 97 0.3 ESE 19 24 10 13 1019.4 1018.4 0.0
19/07:00am 13.5 10.5 12.7 95 0.4 ESE 20 26 11 14 1019.3 1018.3 0.0
19/06:30am 13.7 10.8 12.9 95 0.4 ESE 20 24 11 13 1018.9 1017.9 0.0
19/06:00am 13.8 11.9 13.0 95 0.4 ESE 15 20 8 11 1018.9 1017.9 0.0
19/05:30am 13.7 11.0 12.9 95 0.4 SE 19 24 10 13 1018.9 1017.9 0.0
19/05:00am 13.8 10.6 13.2 96 0.3 ESE 22 30 12 16 1018.7 1017.7 0.0
19/04:30am 13.7 9.7 13.1 96 0.3 ESE 26 32 14 17 1018.8 1017.8 0.0
19/04:00am 13.7 10.6 13.4 98 0.2 ESE 22 28 12 15 1019.1 1018.1 0.0
19/03:30am 13.8 10.7 13.5 98 0.2 SE 22 28 12 15 1019.4 1018.4 0.0
19/03:00am 14.0 10.9 13.5 97 0.3 SE 22 30 12 16 1019.8 1018.8 0.0
19/02:30am 14.1 11.1 13.6 97 0.3 SE 22 28 12 15 1020.1 1019.1 0.0
19/02:00am 14.2 11.6 13.7 97 0.3 SSE 20 26 11 14 1020.7 1019.7 0.0
19/01:30am 14.3 11.3 13.8 97 0.3 SE 22 26 12 14 1021.0 1020.0 0.0
19/01:00am 14.3 10.5 13.7 96 0.3 SE 26 33 14 18 1021.0 1020.0 0.0
19/12:30am 14.3 10.2 13.7 96 0.3 SE 28 37 15 20 1020.8 1019.8 0.0
19/12:00am 14.4 9.9 13.8 96 0.3 SE 30 39 16 21 1020.7 1019.7 0.0
 
Date/Time
CDT
Temp
°C
App
Temp
°C
Dew
Point
°C
Rel
Hum
%
Delta-T
°C
Wind Press
QNH
hPa
Press
MSL
hPa
Rain since
9am
mm
Dir  Spd
km/h
Gust
km/h
Spd
kts
Gust
kts
18/11:30pm 14.7 10.3 14.2 97 0.3 SE 30 39 16 21 1021.0 1020.0 0.0
18/11:00pm 14.5 10.1 14.0 97 0.3 SE 30 39 16 21 1021.0 1020.0 0.0
18/10:30pm 14.5 10.5 14.0 97 0.3 SE 28 35 15 19 1020.8 1019.8 0.0
18/10:00pm 14.6 11.0 14.1 97 0.3 SE 26 37 14 20 1020.8 1019.8 0.0
18/09:30pm 14.6 11.0 14.1 97 0.3 SE 26 32 14 17 1020.7 1019.7 0.0
18/09:00pm 14.6 11.3 14.0 96 0.3 SE 24 30 13 16 1020.6 1019.6 0.0
18/08:30pm 14.6 11.2 13.8 95 0.5 SE 24 32 13 17 1020.5 1019.4 0.0
18/08:00pm 15.0 11.5 13.5 91 0.9 SE 24 32 13 17 1020.7 1019.7 0.0
18/07:30pm 15.9 12.4 13.4 85 1.4 SE 24 30 13 16 1020.7 1019.7 0.0
18/07:00pm 16.9 14.4 13.6 81 1.9 SE 19 24 10 13 1020.6 1019.6 0.0
18/06:30pm 17.9 15.2 13.4 75 2.6 SSE 20 24 11 13 1020.5 1019.4 0.0
18/06:00pm 18.4 15.0 12.4 68 3.4 SE 22 28 12 15 1020.4 1019.3 0.0
18/05:30pm 20.1 17.4 14.7 71 3.2 SSE 22 28 12 15 1020.4 1019.3 0.0
18/05:00pm 21.0 18.2 13.2 61 4.5 SE 20 26 11 14 1020.4 1019.3 0.0
18/04:30pm 21.6 18.4 11.9 54 5.5 SE 20 26 11 14 1020.4 1019.3 0.0
18/04:00pm 22.9 20.2 12.8 53 5.9 SE 19 22 10 12 1020.8 1019.8 0.0
18/03:30pm 23.0 21.0 13.8 56 5.4 SE 17 24 9 13 1020.9 1019.9 0.0
18/03:00pm 23.2 20.9 13.1 53 5.9 SE 17 22 9 12 1021.0 1020.0 0.0
18/02:30pm 22.3 20.3 13.9 59 5.0 SSE 17 22 9 12 1021.3 1020.3 0.0
18/02:00pm 23.6 21.3 14.0 55 5.7 SE 19 26 10 14 1021.5 1020.5 0.0
18/01:30pm 24.2 22.7 14.3 54 5.9 SE 15 20 8 11 1021.8 1020.8 0.0
18/01:00pm 24.4 23.2 15.1 56 5.7 SE 15 22 8 12 1021.7 1020.7 0.0
18/12:30pm 24.3 22.0 11.9 45 7.1 ESE 15 20 8 11 1021.9 1020.9 0.0
18/12:00pm 22.4 21.1 13.7 58 5.1 ESE 13 19 7 10 1022.0 1021.0 0.0
18/11:30am 24.2 22.8 14.6 55 5.8 ESE 15 19 8 10 1021.9 1020.9 0.0
18/11:00am 23.6 21.1 12.3 49 6.5 ESE 17 24 9 13 1022.2 1021.2 0.0
18/10:30am 22.9 20.1 12.5 52 6.0 SE 19 22 10 12 1022.2 1021.2 0.0
18/10:00am 25.1 20.1 3.7 25 10.7 ESE 19 22 10 12 1022.4 1021.4 0.0
18/09:30am 23.6 19.0 5.5 31 9.3 E 19 22 10 12 1022.0 1021.0 0.0

Latest Capital City Observations: Canberra | Sydney | Melbourne | Brisbane | Adelaide | Perth | Hobart | Darwin

Other formats

Comma delimited format used in spreadsheet applications
http://www.bom.gov.au/fwo/IDS60901/IDS60901.94811.axf

JavaScript Object Notation format (JSON) in row-major order
http://www.bom.gov.au/fwo/IDS60901/IDS60901.94811.json

Data quality

Most of these data are generated automatically and are frequently updated. Quality checks on data are not normally performed. It is possible for incorrect values to appear. Refer to information at About Latest Weather Observations and please check the disclaimer before using these data.